Time;durP1;ratioP1;P1;durP2;ratioP2;P2;SDS_P1;SDS_P2;PMS_P1;PMS_P2;Temp;Humidity;BMP_temperature;BMP_pressure;BME280_temperature;BME280_humidity;BME280_pressure;Samples;Min_cycle;Max_cycle;Signal;HPM_P1;HPM_P2
2021/06/08 00:01:18;;;;;;;36.13;23.80;;;16.50;99.90;;;;;;5054474;28;20470;-81
2021/06/08 00:03:44;;;;;;;35.33;22.03;;;16.50;99.90;;;;;;5054800;28;20446;-83
2021/06/08 00:06:12;;;;;;;35.90;24.47;;;16.50;99.90;;;;;;5055107;28;20430;-81
2021/06/08 00:08:38;;;;;;;36.40;22.87;;;16.50;99.90;;;;;;5054157;28;20496;-82
2021/06/08 00:11:04;;;;;;;35.07;23.57;;;16.50;99.90;;;;;;5053807;28;20450;-82
2021/06/08 00:13:31;;;;;;;38.30;23.93;;;16.50;99.90;;;;;;5054305;28;20488;-82
2021/06/08 00:15:57;;;;;;;38.27;23.97;;;16.50;99.90;;;;;;5054261;28;20456;-83
2021/06/08 00:18:23;;;;;;;33.10;21.03;;;16.50;99.90;;;;;;5054427;28;20438;-83
2021/06/08 00:20:50;;;;;;;33.87;23.77;;;16.50;99.90;;;;;;5054530;28;20453;-83
2021/06/08 00:23:17;;;;;;;39.50;23.80;;;16.50;99.90;;;;;;5054127;28;20956;-82
2021/06/08 00:25:44;;;;;;;37.50;23.60;;;16.50;99.90;;;;;;5053675;28;21012;-82
2021/06/08 00:28:10;;;;;;;37.13;23.70;;;16.50;99.90;;;;;;5053780;28;20442;-82
2021/06/08 00:30:36;;;;;;;35.90;23.37;;;16.50;99.90;;;;;;5053962;28;20450;-81
2021/06/08 00:33:02;;;;;;;35.47;23.70;;;16.50;99.90;;;;;;5053240;28;20478;-81
2021/06/08 00:35:30;;;;;;;34.67;22.77;;;16.50;99.90;;;;;;5053702;28;20579;-81
2021/06/08 00:37:56;;;;;;;16.57;11.47;;;16.40;99.90;;;;;;5053752;28;20485;-83
2021/06/08 00:40:26;;;;;;;15.87;10.87;;;16.40;99.90;;;;;;5053825;28;20454;-84
2021/06/08 00:42:53;;;;;;;10.40;8.50;;;16.40;99.90;;;;;;5054063;28;20458;-84
2021/06/08 00:45:19;;;;;;;11.50;9.33;;;16.30;99.90;;;;;;5053860;28;20454;-83
2021/06/08 00:47:45;;;;;;;11.03;8.43;;;16.30;99.90;;;;;;5053783;28;20454;-83
2021/06/08 00:50:12;;;;;;;13.70;10.30;;;16.30;99.90;;;;;;5053774;28;20445;-83
2021/06/08 00:52:38;;;;;;;14.37;10.40;;;16.30;99.90;;;;;;5053866;28;20481;-83
2021/06/08 00:55:07;;;;;;;12.83;7.67;;;16.20;99.90;;;;;;5053725;28;20446;-82
2021/06/08 00:57:35;;;;;;;7.53;6.83;;;16.20;99.90;;;;;;5054763;28;20450;-84
2021/06/08 01:00:01;;;;;;;8.63;7.77;;;16.20;99.90;;;;;;5054134;28;20869;-84
2021/06/08 01:02:27;;;;;;;8.90;7.20;;;16.20;99.90;;;;;;5053870;28;20449;-84
2021/06/08 01:04:53;;;;;;;8.20;6.60;;;16.20;99.90;;;;;;5054225;28;20465;-84
2021/06/08 01:07:20;;;;;;;11.37;7.00;;;16.20;99.90;;;;;;5054204;28;20519;-84
2021/06/08 01:09:46;;;;;;;9.83;7.40;;;16.20;99.90;;;;;;5053805;28;20446;-84
2021/06/08 01:12:12;;;;;;;8.20;7.40;;;16.10;99.90;;;;;;5053856;28;20489;-84
2021/06/08 01:14:40;;;;;;;11.03;7.80;;;16.10;99.90;;;;;;5053261;28;20942;-82
2021/06/08 01:17:06;;;;;;;12.40;8.37;;;16.10;99.90;;;;;;5053593;28;20446;-82
2021/06/08 01:19:32;;;;;;;10.93;9.10;;;16.10;99.90;;;;;;5053350;28;20438;-82
2021/06/08 01:22:00;;;;;;;9.67;8.70;;;16.00;99.90;;;;;;5054284;28;20477;-82
2021/06/08 01:24:26;;;;;;;10.30;8.80;;;16.00;99.90;;;;;;5057235;28;20527;-83
2021/06/08 01:26:53;;;;;;;11.30;8.63;;;16.00;99.90;;;;;;5057035;28;20951;-82
2021/06/08 01:29:19;;;;;;;10.23;8.80;;;16.10;99.90;;;;;;5057295;28;20438;-81
2021/06/08 01:31:48;;;;;;;10.90;9.13;;;16.00;99.90;;;;;;5056783;28;20503;-80
2021/06/08 01:34:15;;;;;;;12.17;10.27;;;16.10;99.90;;;;;;5056933;28;20485;-81
2021/06/08 01:36:43;;;;;;;13.13;10.33;;;16.00;99.90;;;;;;5057054;28;20495;-80
2021/06/08 01:39:10;;;;;;;15.63;10.10;;;16.00;99.90;;;;;;5056578;28;21049;-80
2021/06/08 01:41:38;;;;;;;12.10;9.97;;;16.00;99.90;;;;;;5056511;28;20470;-80
2021/06/08 01:44:05;;;;;;;14.43;10.53;;;16.00;99.90;;;;;;5056858;28;20438;-79
2021/06/08 01:46:31;;;;;;;10.50;8.97;;;16.00;99.90;;;;;;5056810;28;20453;-80
2021/06/08 01:48:58;;;;;;;13.30;9.80;;;16.00;99.90;;;;;;5056778;28;20442;-79
2021/06/08 01:51:32;;;;;;;16.10;10.50;;;16.10;99.90;;;;;;5056490;28;20984;-81
2021/06/08 01:54:08;;;;;;;16.00;10.47;;;16.10;99.90;;;;;;5057143;28;20468;-81
2021/06/08 01:56:39;;;;;;;14.80;10.80;;;16.10;99.90;;;;;;5056892;28;20520;-81
2021/06/08 01:59:19;;;;;;;10.33;8.90;;;16.10;99.90;;;;;;5056678;28;20463;-81
2021/06/08 02:01:57;;;;;;;12.40;9.70;;;16.00;99.90;;;;;;5056442;28;20461;-80
2021/06/08 02:04:25;;;;;;;11.40;8.97;;;16.10;99.90;;;;;;5056779;28;20433;-81
2021/06/08 02:07:07;;;;;;;10.57;9.13;;;16.00;99.90;;;;;;5056610;28;20465;-82
2021/06/08 02:09:41;;;;;;;11.13;8.63;;;16.10;99.90;;;;;;5056186;28;20429;-82
2021/06/08 02:12:15;;;;;;;9.83;8.37;;;16.10;99.90;;;;;;5056227;28;20468;-80
2021/06/08 02:14:47;;;;;;;11.07;8.50;;;16.00;99.90;;;;;;5056292;28;20532;-80
2021/06/08 02:17:17;;;;;;;9.83;8.33;;;16.10;99.90;;;;;;5055895;28;20438;-79
2021/06/08 02:19:46;;;;;;;8.67;7.80;;;16.00;99.90;;;;;;5056406;28;20421;-83
2021/06/08 02:22:13;;;;;;;9.87;7.73;;;16.10;99.90;;;;;;5056381;28;20473;-80
2021/06/08 02:24:44;;;;;;;8.90;7.67;;;16.00;99.90;;;;;;5056113;28;20437;-80
2021/06/08 02:27:13;;;;;;;10.83;8.47;;;16.10;99.90;;;;;;5056031;28;20441;-80
2021/06/08 02:29:44;;;;;;;9.73;8.00;;;16.10;99.90;;;;;;5055760;28;20449;-80
2021/06/08 02:32:11;;;;;;;11.80;8.10;;;16.10;99.90;;;;;;5055842;28;20473;-80
2021/06/08 02:34:38;;;;;;;8.83;7.23;;;16.10;99.90;;;;;;5055888;28;20434;-80
2021/06/08 02:37:06;;;;;;;10.30;8.40;;;16.10;99.90;;;;;;5055894;28;20442;-80
2021/06/08 02:39:33;;;;;;;11.00;7.80;;;16.10;99.90;;;;;;5055307;28;20489;-78
2021/06/08 02:41:59;;;;;;;10.60;7.67;;;16.00;99.90;;;;;;5055421;28;20465;-80
2021/06/08 02:44:28;;;;;;;10.20;7.70;;;16.10;99.90;;;;;;5055415;28;21071;-80
2021/06/08 02:46:57;;;;;;;7.93;7.13;;;16.10;99.90;;;;;;5055860;28;20452;-81
2021/06/08 02:49:24;;;;;;;8.10;7.30;;;16.10;99.90;;;;;;5055728;28;20449;-82
2021/06/08 02:51:51;;;;;;;9.13;7.23;;;16.00;99.90;;;;;;5055751;28;20462;-82
2021/06/08 02:54:19;;;;;;;7.47;6.60;;;16.10;99.90;;;;;;5055547;28;20478;-82
2021/06/08 02:56:46;;;;;;;7.73;6.80;;;16.10;99.90;;;;;;5055557;28;20459;-82
2021/06/08 02:59:14;;;;;;;7.83;7.07;;;16.10;99.90;;;;;;5055228;28;20434;-82
2021/06/08 03:01:45;;;;;;;7.73;6.93;;;16.00;99.90;;;;;;5055126;28;20457;-81
2021/06/08 03:04:15;;;;;;;7.43;6.23;;;16.00;99.90;;;;;;5055411;28;20433;-81
2021/06/08 03:06:48;;;;;;;7.17;6.57;;;16.00;99.90;;;;;;5055442;28;20442;-82
2021/06/08 03:09:17;;;;;;;7.50;6.50;;;16.00;99.90;;;;;;5055105;28;20906;-81
2021/06/08 03:11:50;;;;;;;8.23;6.87;;;16.00;99.90;;;;;;5054953;28;20981;-81
2021/06/08 03:14:18;;;;;;;7.20;6.50;;;16.00;99.90;;;;;;5055231;28;20470;-81
2021/06/08 03:16:51;;;;;;;7.30;6.60;;;16.00;99.90;;;;;;5055023;28;20797;-81
2021/06/08 03:19:20;;;;;;;7.93;7.23;;;16.00;99.90;;;;;;5055193;28;20434;-81
2021/06/08 03:21:50;;;;;;;7.37;6.67;;;16.00;99.90;;;;;;5055385;28;20462;-83
2021/06/08 03:24:19;;;;;;;9.63;7.47;;;16.10;99.90;;;;;;5055374;28;20434;-82
2021/06/08 03:26:47;;;;;;;7.03;6.40;;;16.10;99.90;;;;;;5055245;28;20441;-83
2021/06/08 03:29:15;;;;;;;7.50;6.63;;;16.10;99.90;;;;;;5055532;28;20438;-83
2021/06/08 03:31:45;;;;;;;8.20;6.27;;;16.10;99.90;;;;;;5054785;28;20457;-82
2021/06/08 03:34:15;;;;;;;8.13;7.30;;;16.10;99.90;;;;;;5054595;28;20474;-82
2021/06/08 03:36:43;;;;;;;10.57;8.13;;;16.00;99.90;;;;;;5054850;28;20446;-82
2021/06/08 03:39:10;;;;;;;11.57;9.03;;;16.10;99.90;;;;;;5054433;28;20478;-82
2021/06/08 03:41:37;;;;;;;11.83;9.73;;;16.10;99.90;;;;;;5054550;28;20470;-81
2021/06/08 03:44:05;;;;;;;14.83;11.53;;;16.10;99.90;;;;;;5054640;28;20457;-82
2021/06/08 03:46:34;;;;;;;14.40;10.13;;;16.10;99.90;;;;;;5054133;28;20454;-82
2021/06/08 03:49:00;;;;;;;14.77;10.87;;;16.10;99.90;;;;;;5054218;28;20941;-82
2021/06/08 03:51:30;;;;;;;14.17;11.97;;;16.10;99.90;;;;;;5054436;28;20523;-81
2021/06/08 03:53:56;;;;;;;19.00;12.40;;;16.20;99.90;;;;;;5054370;28;20576;-82
2021/06/08 03:56:23;;;;;;;24.50;15.70;;;16.20;99.90;;;;;;5054401;28;20957;-81
2021/06/08 03:58:53;;;;;;;21.43;15.73;;;16.20;99.90;;;;;;5054303;28;20450;-81
2021/06/08 04:01:20;;;;;;;24.87;15.50;;;16.20;99.90;;;;;;5054044;28;20450;-81
2021/06/08 04:03:47;;;;;;;21.90;15.37;;;16.20;99.90;;;;;;5054360;28;20445;-81
2021/06/08 04:06:15;;;;;;;29.10;16.60;;;16.20;99.90;;;;;;5053946;28;20964;-82
2021/06/08 04:08:43;;;;;;;32.23;20.77;;;16.20;99.90;;;;;;5054207;28;20437;-81
2021/06/08 04:11:10;;;;;;;35.30;19.97;;;16.20;99.90;;;;;;5054046;28;20536;-83
2021/06/08 04:13:40;;;;;;;28.80;17.80;;;16.20;99.90;;;;;;5053694;28;20854;-82
2021/06/08 04:16:07;;;;;;;33.83;20.73;;;16.30;99.90;;;;;;5053709;28;20524;-82
2021/06/08 04:18:34;;;;;;;33.00;19.40;;;16.30;99.90;;;;;;5053998;28;20461;-82
2021/06/08 04:21:01;;;;;;;29.73;17.53;;;16.20;99.90;;;;;;5054473;28;21000;-81
2021/06/08 04:23:28;;;;;;;32.00;19.30;;;16.30;99.90;;;;;;5053698;28;20512;-82
2021/06/08 04:25:57;;;;;;;32.00;17.87;;;16.30;99.90;;;;;;5053871;28;20445;-81
2021/06/08 04:28:24;;;;;;;32.87;19.43;;;16.30;99.90;;;;;;5054088;28;20438;-79
2021/06/08 04:30:51;;;;;;;34.00;19.33;;;16.30;99.90;;;;;;5053637;28;20456;-80
2021/06/08 04:33:21;;;;;;;39.00;22.33;;;16.30;99.90;;;;;;5053615;28;20485;-79
2021/06/08 04:35:47;;;;;;;36.30;20.27;;;16.30;99.90;;;;;;5054181;28;20473;-81
2021/06/08 04:38:15;;;;;;;35.60;20.77;;;16.30;99.90;;;;;;5053472;28;20473;-81
2021/06/08 04:40:43;;;;;;;34.77;21.03;;;16.30;99.90;;;;;;5053804;28;20476;-81
2021/06/08 04:43:10;;;;;;;37.47;20.97;;;16.30;99.90;;;;;;5053924;28;20457;-82
2021/06/08 04:45:37;;;;;;;37.33;21.90;;;16.30;99.90;;;;;;5053564;28;20954;-80
2021/06/08 04:48:04;;;;;;;35.43;22.03;;;16.40;99.90;;;;;;5053753;28;20507;-81
2021/06/08 04:50:30;;;;;;;39.63;22.90;;;16.40;99.90;;;;;;5053588;28;20949;-82
2021/06/08 04:52:56;;;;;;;36.70;21.13;;;16.30;99.90;;;;;;5054127;28;20477;-83
2021/06/08 04:55:24;;;;;;;42.83;23.63;;;16.40;99.90;;;;;;5053495;28;20446;-80
2021/06/08 04:57:51;;;;;;;38.17;22.47;;;16.40;99.90;;;;;;5052486;28;20450;-80
2021/06/08 05:00:22;;;;;;;38.30;22.50;;;16.40;99.90;;;;;;5053377;28;20496;-80
2021/06/08 05:02:54;;;;;;;37.80;21.93;;;16.30;99.90;;;;;;5053280;28;20500;-80
2021/06/08 05:05:23;;;;;;;36.53;21.90;;;16.30;99.90;;;;;;5053204;28;20414;-81
2021/06/08 05:07:56;;;;;;;36.90;22.07;;;16.40;99.90;;;;;;5053415;28;20438;-81
2021/06/08 05:10:25;;;;;;;38.20;21.57;;;16.30;99.90;;;;;;5053299;28;20910;-83
2021/06/08 05:12:53;;;;;;;37.93;22.03;;;16.30;99.90;;;;;;5053402;28;20490;-79
2021/06/08 05:15:23;;;;;;;40.43;23.27;;;16.30;99.90;;;;;;5052868;28;20920;-79
2021/06/08 05:17:51;;;;;;;41.87;23.93;;;16.30;99.90;;;;;;5053619;28;20795;-80
2021/06/08 05:20:18;;;;;;;38.70;23.47;;;16.30;99.90;;;;;;5053227;28;20450;-80
2021/06/08 05:22:46;;;;;;;41.50;22.30;;;16.40;99.90;;;;;;5053054;28;20469;-79
2021/06/08 05:25:13;;;;;;;41.67;23.13;;;16.40;99.90;;;;;;5053142;28;20779;-80
2021/06/08 05:27:39;;;;;;;38.90;22.73;;;16.40;99.90;;;;;;5053312;28;20449;-83
2021/06/08 05:30:08;;;;;;;39.87;23.13;;;16.40;99.90;;;;;;5053602;28;20449;-82
2021/06/08 05:32:37;;;;;;;39.70;22.70;;;16.40;99.90;;;;;;5053344;28;20472;-83
2021/06/08 05:35:05;;;;;;;38.00;22.87;;;16.40;99.90;;;;;;5053448;28;20933;-83
2021/06/08 05:37:38;;;;;;;40.80;23.07;;;16.40;99.90;;;;;;5053177;28;20448;-83
2021/06/08 05:40:06;;;;;;;38.40;22.77;;;16.40;99.90;;;;;;5053524;28;20521;-80
2021/06/08 05:42:32;;;;;;;41.43;23.00;;;16.50;99.90;;;;;;5052597;28;20832;-81
2021/06/08 05:44:58;;;;;;;44.00;23.67;;;16.50;99.90;;;;;;5053270;28;20434;-81
2021/06/08 05:47:24;;;;;;;39.90;24.60;;;16.50;99.90;;;;;;5052902;28;20457;-79
2021/06/08 05:49:52;;;;;;;43.20;23.80;;;16.60;99.90;;;;;;5052603;28;20953;-81
2021/06/08 05:52:18;;;;;;;44.07;25.80;;;16.60;99.90;;;;;;5052861;28;20465;-81
2021/06/08 05:54:46;;;;;;;40.60;22.73;;;16.60;99.90;;;;;;5052830;28;20469;-80
2021/06/08 05:57:12;;;;;;;42.23;23.97;;;16.60;99.90;;;;;;5052861;28;20460;-79
2021/06/08 05:59:39;;;;;;;40.03;22.33;;;16.60;99.90;;;;;;5052883;28;20449;-81
2021/06/08 06:02:06;;;;;;;37.83;22.77;;;16.60;99.90;;;;;;5052477;28;20980;-80
2021/06/08 06:04:33;;;;;;;36.83;22.80;;;16.60;99.90;;;;;;5052821;28;20438;-81
2021/06/08 06:07:00;;;;;;;40.60;23.87;;;16.60;99.90;;;;;;5053055;28;20438;-81
2021/06/08 06:09:27;;;;;;;36.83;23.53;;;16.60;99.90;;;;;;5056057;28;20445;-81
2021/06/08 06:11:55;;;;;;;40.33;24.23;;;16.60;99.90;;;;;;5056141;28;21015;-81
2021/06/08 06:14:22;;;;;;;41.87;23.80;;;16.60;99.90;;;;;;5056410;28;20489;-80
2021/06/08 06:16:51;;;;;;;37.73;23.27;;;16.60;99.90;;;;;;5056317;28;20796;-80
2021/06/08 06:19:18;;;;;;;34.33;23.00;;;16.60;99.90;;;;;;5056250;28;20452;-79
2021/06/08 06:21:45;;;;;;;39.90;22.50;;;16.70;99.90;;;;;;5056078;28;20476;-80
2021/06/08 06:24:13;;;;;;;37.30;23.07;;;16.70;99.90;;;;;;5056139;28;20442;-80
2021/06/08 06:26:41;;;;;;;34.07;21.43;;;16.70;99.90;;;;;;5057295;28;20442;-83
2021/06/08 06:29:09;;;;;;;34.67;22.20;;;16.70;99.90;;;;;;5056016;28;20450;-81
2021/06/08 06:31:35;;;;;;;35.27;22.60;;;16.70;99.90;;;;;;5055937;28;20466;-81
2021/06/08 06:34:01;;;;;;;37.23;21.90;;;16.70;99.90;;;;;;5055962;28;20485;-81
2021/06/08 06:36:31;;;;;;;38.13;22.30;;;16.80;99.90;;;;;;5055999;28;20823;-81
2021/06/08 06:39:03;;;;;;;32.60;22.60;;;16.70;99.90;;;;;;5055583;28;20470;-82
2021/06/08 06:41:32;;;;;;;31.30;21.43;;;16.80;99.90;;;;;;5059443;28;20484;-83
2021/06/08 06:43:59;;;;;;;32.27;22.17;;;16.80;99.90;;;;;;5056349;28;20472;-84
2021/06/08 06:46:31;;;;;;;35.27;21.47;;;16.90;99.90;;;;;;5056327;28;20446;-83
2021/06/08 06:48:58;;;;;;;30.63;20.30;;;16.90;99.90;;;;;;5056282;28;20430;-83
2021/06/08 06:51:25;;;;;;;30.97;22.00;;;16.90;99.90;;;;;;5056004;28;20462;-83
2021/06/08 06:53:54;;;;;;;33.43;21.33;;;17.00;99.90;;;;;;5055887;28;20531;-83
2021/06/08 06:56:22;;;;;;;31.70;19.60;;;17.10;99.90;;;;;;5055502;28;20602;-79
2021/06/08 06:58:50;;;;;;;30.07;19.20;;;17.10;99.90;;;;;;5055475;28;20504;-79
2021/06/08 07:01:19;;;;;;;28.00;20.17;;;17.20;99.90;;;;;;5055444;28;20474;-80
2021/06/08 07:03:51;;;;;;;30.63;20.90;;;17.20;99.90;;;;;;5055868;28;20465;-84
2021/06/08 07:06:19;;;;;;;30.40;21.40;;;17.20;99.90;;;;;;5056227;28;20434;-83
2021/06/08 07:08:49;;;;;;;33.17;20.80;;;17.20;99.90;;;;;;5056032;28;20430;-83
2021/06/08 07:11:16;;;;;;;30.20;21.47;;;17.20;99.90;;;;;;5056065;28;20474;-83
2021/06/08 07:13:43;;;;;;;32.83;21.10;;;17.20;99.90;;;;;;5055963;28;20524;-83
2021/06/08 07:16:11;;;;;;;32.87;21.40;;;17.20;99.90;;;;;;5055782;28;20437;-83
2021/06/08 07:18:39;;;;;;;31.50;21.17;;;17.20;99.90;;;;;;5055499;28;20430;-83
2021/06/08 07:21:06;;;;;;;30.73;21.80;;;17.20;99.90;;;;;;5055538;28;20473;-83
2021/06/08 07:23:33;;;;;;;34.00;24.17;;;17.20;99.90;;;;;;5055687;28;20435;-83
2021/06/08 07:25:59;;;;;;;33.37;22.30;;;17.20;99.90;;;;;;5055573;28;20429;-83
2021/06/08 07:28:27;;;;;;;35.70;22.87;;;17.20;99.90;;;;;;5055350;28;20411;-82
2021/06/08 07:30:55;;;;;;;30.07;19.70;;;17.20;99.90;;;;;;5055614;28;20413;-83
2021/06/08 07:33:29;;;;;;;35.33;23.53;;;17.20;99.90;;;;;;5055483;28;20476;-83
2021/06/08 07:36:02;;;;;;;31.03;19.43;;;17.30;99.90;;;;;;5055505;28;20445;-83
2021/06/08 07:38:33;;;;;;;34.80;22.23;;;17.30;99.90;;;;;;5055046;28;20500;-83
2021/06/08 07:41:03;;;;;;;34.17;22.53;;;17.20;99.90;;;;;;5055074;28;20953;-83
2021/06/08 07:43:35;;;;;;;36.87;21.10;;;17.20;99.90;;;;;;5055148;28;20442;-83
2021/06/08 07:46:07;;;;;;;32.93;22.10;;;17.20;99.90;;;;;;5055145;28;20487;-82
2021/06/08 07:48:36;;;;;;;32.53;21.80;;;17.40;99.90;;;;;;5055083;28;20430;-83
2021/06/08 07:51:05;;;;;;;35.23;22.47;;;17.40;99.90;;;;;;5055024;28;20844;-83
2021/06/08 07:53:32;;;;;;;32.50;22.30;;;17.50;99.90;;;;;;5054727;28;20477;-83
2021/06/08 07:55:59;;;;;;;32.93;23.07;;;17.40;99.90;;;;;;5054688;28;20453;-83
2021/06/08 07:58:26;;;;;;;41.33;22.77;;;17.40;99.90;;;;;;5054765;28;20442;-83
2021/06/08 08:00:56;;;;;;;38.30;23.13;;;17.40;99.90;;;;;;5054844;28;20441;-82
2021/06/08 08:03:26;;;;;;;36.57;22.47;;;17.40;99.90;;;;;;5054992;28;20429;-84
2021/06/08 08:05:58;;;;;;;33.73;22.73;;;17.40;99.90;;;;;;5054849;28;20458;-83
2021/06/08 08:08:24;;;;;;;35.70;22.77;;;17.40;99.90;;;;;;5054494;28;20434;-83
2021/06/08 08:10:52;;;;;;;36.67;23.00;;;17.50;99.90;;;;;;5054260;28;20456;-82
2021/06/08 08:13:22;;;;;;;34.57;22.73;;;17.50;99.90;;;;;;5055299;28;20477;-83
2021/06/08 08:15:50;;;;;;;34.27;23.67;;;17.60;99.90;;;;;;5054626;28;20434;-83
2021/06/08 08:18:17;;;;;;;34.93;22.50;;;17.70;99.90;;;;;;5054505;28;20457;-83
2021/06/08 08:20:46;;;;;;;34.13;21.60;;;17.70;99.90;;;;;;5054121;28;20445;-82
2021/06/08 08:23:14;;;;;;;34.10;23.07;;;17.70;99.90;;;;;;5054576;28;20452;-83
2021/06/08 08:25:42;;;;;;;35.13;23.57;;;17.70;99.90;;;;;;5054338;28;20450;-82
2021/06/08 08:28:09;;;;;;;47.33;22.90;;;17.70;99.90;;;;;;5054447;28;20446;-83
2021/06/08 08:30:35;;;;;;;36.13;23.33;;;17.60;99.90;;;;;;5054252;28;20812;-82
2021/06/08 08:33:03;;;;;;;38.10;24.17;;;17.60;99.90;;;;;;5054174;28;20494;-83
2021/06/08 08:35:29;;;;;;;41.07;24.33;;;17.60;99.90;;;;;;5054514;28;20810;-84
2021/06/08 08:37:56;;;;;;;36.07;24.03;;;17.50;99.90;;;;;;5054593;28;20473;-83
2021/06/08 08:40:23;;;;;;;34.43;23.47;;;17.50;99.90;;;;;;5053970;28;20461;-84
2021/06/08 08:42:50;;;;;;;34.93;23.17;;;17.60;99.90;;;;;;5054404;28;20473;-83
2021/06/08 08:45:16;;;;;;;34.37;23.73;;;17.60;99.90;;;;;;5055166;28;20434;-84
2021/06/08 08:47:44;;;;;;;34.67;22.13;;;17.60;99.90;;;;;;5054951;28;20437;-83
2021/06/08 08:50:12;;;;;;;36.40;24.30;;;17.70;99.90;;;;;;5054103;28;20853;-83
2021/06/08 08:52:38;;;;;;;34.90;22.43;;;17.70;99.90;;;;;;5054107;28;20469;-83
2021/06/08 08:55:05;;;;;;;39.67;24.10;;;17.70;99.90;;;;;;5054123;28;20473;-83
2021/06/08 08:57:34;;;;;;;35.57;23.20;;;17.80;99.90;;;;;;5054186;28;20434;-83
2021/06/08 09:00:05;;;;;;;35.77;23.60;;;17.80;99.90;;;;;;5053753;28;20427;-83
2021/06/08 09:02:32;;;;;;;35.87;24.53;;;17.90;99.90;;;;;;5053685;28;20501;-83
2021/06/08 09:05:00;;;;;;;37.00;24.37;;;17.90;99.90;;;;;;5054064;28;20432;-83
2021/06/08 09:07:27;;;;;;;34.47;23.40;;;17.80;99.90;;;;;;5053627;28;20426;-83
2021/06/08 09:09:55;;;;;;;36.03;24.00;;;17.80;99.90;;;;;;5053378;28;20898;-83
2021/06/08 09:12:22;;;;;;;37.20;24.40;;;17.90;99.90;;;;;;5053471;28;20476;-83
2021/06/08 09:14:49;;;;;;;31.80;22.17;;;17.90;99.90;;;;;;5053549;28;20505;-83
2021/06/08 09:17:18;;;;;;;34.63;23.70;;;18.00;99.90;;;;;;5053784;28;20438;-83
2021/06/08 09:19:44;;;;;;;36.60;24.20;;;18.10;99.90;;;;;;5053962;28;20438;-83
2021/06/08 09:22:13;;;;;;;32.47;23.30;;;18.30;99.90;;;;;;5053615;28;20481;-83
2021/06/08 09:24:42;;;;;;;31.77;22.97;;;18.40;99.90;;;;;;5054084;28;20783;-83
2021/06/08 09:27:09;;;;;;;32.07;24.37;;;18.50;99.90;;;;;;5053719;28;20823;-84
2021/06/08 09:29:37;;;;;;;35.30;23.80;;;18.70;99.90;;;;;;5053713;28;20419;-83
2021/06/08 09:32:17;;;;;;;34.83;24.93;;;18.90;99.90;;;;;;5053667;28;21050;-83
2021/06/08 09:34:49;;;;;;;29.90;23.43;;;19.20;99.90;;;;;;5053623;28;20469;-83
2021/06/08 09:37:15;;;;;;;31.57;23.47;;;19.40;99.90;;;;;;5053565;28;20453;-83
2021/06/08 09:39:46;;;;;;;30.77;24.30;;;19.50;99.90;;;;;;5053620;28;20456;-83
2021/06/08 09:42:20;;;;;;;30.10;21.13;;;19.70;99.90;;;;;;5056219;28;20450;-83
2021/06/08 09:44:47;;;;;;;30.13;22.30;;;20.00;99.90;;;;;;5057270;28;20437;-83
2021/06/08 09:47:25;;;;;;;31.73;22.57;;;20.30;99.90;;;;;;5057039;28;20910;-83
2021/06/08 09:49:51;;;;;;;29.33;21.83;;;20.40;99.90;;;;;;5056958;28;20421;-83
2021/06/08 09:52:19;;;;;;;27.77;21.30;;;20.50;99.90;;;;;;5057225;28;20466;-83
2021/06/08 09:54:50;;;;;;;30.77;23.03;;;20.70;99.90;;;;;;5057424;28;20470;-85
2021/06/08 09:57:21;;;;;;;29.47;22.90;;;20.70;99.90;;;;;;5057477;28;20426;-82
2021/06/08 09:59:52;;;;;;;27.37;21.80;;;20.80;99.90;;;;;;5056987;28;20406;-84
2021/06/08 10:02:35;;;;;;;28.67;22.17;;;21.10;99.90;;;;;;5057481;28;20479;-84
2021/06/08 10:05:22;;;;;;;28.00;20.90;;;21.40;99.90;;;;;;5057280;28;20513;-84
2021/06/08 10:07:50;;;;;;;25.50;20.77;;;21.70;99.90;;;;;;5056936;28;20433;-83
2021/06/08 10:10:19;;;;;;;27.77;21.60;;;21.80;99.90;;;;;;5057233;28;20433;-83
2021/06/08 10:13:02;;;;;;;29.67;23.57;;;21.90;99.90;;;;;;5056725;28;20553;-84
2021/06/08 10:15:31;;;;;;;27.17;21.20;;;21.80;99.90;;;;;;5056663;28;20433;-83
2021/06/08 10:18:00;;;;;;;28.30;22.43;;;21.60;99.90;;;;;;5056472;28;20526;-83
2021/06/08 10:20:29;;;;;;;28.53;21.27;;;21.30;99.90;;;;;;5056367;28;20455;-83
2021/06/08 10:22:58;;;;;;;30.17;22.07;;;21.20;99.90;;;;;;5056284;28;20531;-83
2021/06/08 10:25:25;;;;;;;25.70;21.67;;;21.00;99.90;;;;;;5056553;28;20445;-83
2021/06/08 10:27:51;;;;;;;27.97;22.53;;;20.90;99.90;;;;;;5056543;28;20456;-83
2021/06/08 10:30:18;;;;;;;29.40;22.43;;;20.80;99.90;;;;;;5056708;28;20438;-83
2021/06/08 10:32:45;;;;;;;28.40;22.87;;;20.80;99.90;;;;;;5056313;28;20948;-83
2021/06/08 10:35:12;;;;;;;26.07;21.73;;;20.80;99.90;;;;;;5058273;28;20469;-81
2021/06/08 10:37:39;;;;;;;28.27;22.73;;;20.90;99.90;;;;;;5057954;28;20524;-83
2021/06/08 10:40:07;;;;;;;26.83;21.50;;;21.00;99.90;;;;;;5056823;28;20489;-83
2021/06/08 10:42:33;;;;;;;26.10;22.50;;;21.30;99.90;;;;;;5056067;28;20469;-82
2021/06/08 10:45:04;;;;;;;27.43;21.33;;;21.60;99.90;;;;;;5056289;28;20928;-83
2021/06/08 10:47:35;;;;;;;26.13;22.20;;;22.10;99.90;;;;;;5055993;28;20431;-82
2021/06/08 10:50:02;;;;;;;25.23;20.60;;;22.40;99.90;;;;;;5056538;28;20956;-82
2021/06/08 10:52:44;;;;;;;23.33;20.50;;;22.40;99.90;;;;;;5055674;28;20449;-83
2021/06/08 10:55:11;;;;;;;28.70;21.40;;;22.30;99.90;;;;;;5054227;28;20484;-83
2021/06/08 10:57:48;;;;;;;25.60;22.60;;;22.00;99.90;;;;;;5055958;28;20487;-83
2021/06/08 11:00:40;;;;;;;26.00;21.33;;;21.80;99.90;;;;;;5055565;28;20924;-82
2021/06/08 11:03:09;;;;;;;30.37;22.47;;;21.80;99.90;;;;;;5055386;28;20927;-83
2021/06/08 11:05:49;;;;;;;23.27;19.90;;;21.90;99.90;;;;;;5055899;28;20459;-83
2021/06/08 11:08:18;;;;;;;28.90;19.87;;;21.90;99.90;;;;;;5055365;28;20429;-83
2021/06/08 11:11:02;;;;;;;23.43;19.83;;;21.80;99.90;;;;;;5055603;28;20433;-83
2021/06/08 11:13:45;;;;;;;24.17;20.67;;;21.90;99.90;;;;;;5055327;28;20803;-82
2021/06/08 11:16:34;;;;;;;24.43;19.90;;;21.90;99.90;;;;;;5055148;28;20983;-83
2021/06/08 11:19:01;;;;;;;27.73;20.73;;;21.70;99.90;;;;;;5055515;28;20767;-82
2021/06/08 11:21:33;;;;;;;22.03;19.63;;;21.60;99.90;;;;;;5055362;28;20473;-82
2021/06/08 11:24:00;;;;;;;20.57;18.00;;;21.70;99.90;;;;;;5055284;28;20425;-82
2021/06/08 11:26:47;;;;;;;29.17;19.07;;;21.70;99.90;;;;;;5055022;28;20421;-81
2021/06/08 11:29:43;;;;;;;24.63;20.10;;;21.80;99.90;;;;;;5055533;28;20434;-83
2021/06/08 11:32:11;;;;;;;21.90;19.50;;;21.70;99.90;;;;;;5055464;28;20469;-84
2021/06/08 11:35:08;;;;;;;23.10;20.40;;;21.60;99.90;;;;;;5055139;28;20475;-83
2021/06/08 11:37:49;;;;;;;23.53;20.00;;;21.50;99.90;;;;;;5055475;28;20491;-83
2021/06/08 11:40:55;;;;;;;21.90;18.23;;;21.40;99.90;;;;;;5055252;28;20837;-83
2021/06/08 11:44:04;;;;;;;21.90;19.50;;;21.20;99.90;;;;;;5055559;28;20435;-83
2021/06/08 11:46:47;;;;;;;27.30;21.90;;;21.30;99.90;;;;;;5055360;28;20438;-83
2021/06/08 11:49:18;;;;;;;23.10;20.70;;;21.30;99.90;;;;;;5055154;28;20449;-83
2021/06/08 11:52:03;;;;;;;21.47;19.00;;;21.10;99.90;;;;;;5054861;28;20976;-82
2021/06/08 11:54:50;;;;;;;22.87;20.40;;;21.00;99.90;;;;;;5054969;28;20564;-83
2021/06/08 11:57:37;;;;;;;23.37;20.87;;;20.90;99.90;;;;;;5050503;28;20794;-83
2021/06/08 12:00:06;;;;;;;22.53;20.13;;;21.10;99.90;;;;;;5054853;28;20426;-83
2021/06/08 12:02:37;;;;;;;23.17;19.57;;;21.20;99.90;;;;;;5054603;28;20988;-83
2021/06/08 12:05:09;;;;;;;22.50;20.20;;;21.40;99.90;;;;;;5054571;28;20987;-83
2021/06/08 12:07:49;;;;;;;25.23;21.20;;;21.50;99.90;;;;;;5054793;28;20821;-83
2021/06/08 12:10:28;;;;;;;25.00;20.40;;;21.60;99.90;;;;;;5054728;28;20410;-82
2021/06/08 12:12:55;;;;;;;23.80;21.20;;;21.60;99.90;;;;;;5054820;28;20469;-83
2021/06/08 12:15:24;;;;;;;25.23;21.23;;;21.50;99.90;;;;;;5054881;28;20492;-83
2021/06/08 12:18:04;;;;;;;23.33;19.80;;;21.50;99.90;;;;;;5054155;28;20449;-83
2021/06/08 12:20:31;;;;;;;24.03;19.17;;;21.40;99.90;;;;;;5054808;28;20434;-83
2021/06/08 12:22:58;;;;;;;22.40;20.00;;;21.50;99.90;;;;;;5054125;28;20826;-86
2021/06/08 12:25:25;;;;;;;24.73;20.30;;;21.60;99.90;;;;;;5054670;28;20437;-82
2021/06/08 12:27:51;;;;;;;22.10;19.70;;;21.70;99.90;;;;;;5054291;28;20814;-83
2021/06/08 12:30:22;;;;;;;23.80;19.90;;;21.80;99.90;;;;;;5054296;28;20813;-83
2021/06/08 12:32:56;;;;;;;22.10;19.77;;;21.80;99.90;;;;;;5054093;28;21049;-82
2021/06/08 12:35:31;;;;;;;23.73;21.23;;;21.90;99.90;;;;;;5054403;28;20509;-85
2021/06/08 12:38:15;;;;;;;23.07;19.47;;;22.00;99.90;;;;;;5054377;28;20563;-83
2021/06/08 12:40:43;;;;;;;22.43;19.27;;;22.00;99.90;;;;;;5054303;28;20437;-84
2021/06/08 12:43:09;;;;;;;23.47;20.90;;;22.10;99.90;;;;;;5054186;28;20972;-83